createdAt,value
2023-04-18T00:00:50.645Z,99.90
2023-04-18T00:03:38.979Z,99.90
2023-04-18T00:06:26.635Z,99.90
2023-04-18T00:09:14.049Z,99.90
2023-04-18T00:12:02.023Z,99.90
2023-04-18T00:14:50.407Z,99.90
2023-04-18T00:17:41.039Z,99.90
2023-04-18T00:20:28.518Z,99.90
2023-04-18T00:23:16.299Z,99.90
2023-04-18T00:26:03.716Z,99.90
2023-04-18T00:28:51.203Z,99.90
2023-04-18T00:31:38.664Z,99.90
2023-04-18T00:34:26.116Z,99.90
2023-04-18T00:37:13.547Z,99.90
2023-04-18T00:40:01.151Z,99.90
2023-04-18T00:42:48.636Z,99.90
2023-04-18T00:45:37.021Z,99.90
2023-04-18T00:48:24.655Z,99.90
2023-04-18T00:51:12.443Z,99.90
2023-04-18T00:54:00.138Z,99.90
2023-04-18T00:56:48.553Z,99.90
2023-04-18T00:59:36.082Z,99.90
2023-04-18T01:02:26.067Z,99.90
2023-04-18T01:05:13.846Z,99.90
2023-04-18T01:08:01.921Z,99.90
2023-04-18T01:10:49.994Z,99.90
2023-04-18T01:13:37.535Z,99.90
2023-04-18T01:16:25.139Z,99.90
2023-04-18T01:19:13.062Z,99.90
2023-04-18T01:22:00.544Z,99.90
2023-04-18T01:24:48.048Z,99.90
2023-04-18T01:27:35.582Z,99.90
2023-04-18T01:30:23.020Z,99.90
2023-04-18T01:33:10.734Z,99.90
2023-04-18T01:35:58.298Z,99.90
2023-04-18T01:38:45.673Z,99.90
2023-04-18T01:41:33.216Z,99.90
2023-04-18T01:44:20.697Z,99.90
2023-04-18T01:47:08.073Z,99.90
2023-04-18T01:49:55.918Z,99.90
2023-04-18T01:52:43.350Z,99.90
2023-04-18T01:55:30.764Z,99.90
2023-04-18T01:58:23.025Z,99.90
2023-04-18T02:01:10.662Z,99.90
2023-04-18T02:03:58.209Z,99.90
2023-04-18T02:06:45.790Z,99.90
2023-04-18T02:09:33.251Z,99.90
2023-04-18T02:12:20.988Z,99.90
2023-04-18T02:15:09.125Z,99.90
2023-04-18T02:17:56.607Z,99.90
2023-04-18T02:20:45.173Z,99.90
2023-04-18T02:23:33.013Z,99.90
2023-04-18T02:26:20.460Z,99.90
2023-04-18T02:29:07.953Z,99.90
2023-04-18T02:31:55.573Z,99.90
2023-04-18T02:34:43.110Z,99.90
2023-04-18T02:37:30.566Z,99.90
2023-04-18T02:40:18.723Z,99.90
2023-04-18T02:43:06.361Z,99.90
2023-04-18T02:45:53.827Z,99.90
2023-04-18T02:48:41.304Z,99.90
2023-04-18T02:51:28.920Z,99.90
2023-04-18T02:54:16.525Z,99.90
2023-04-18T02:57:04.257Z,99.90
2023-04-18T02:59:51.724Z,99.90
2023-04-18T03:02:39.323Z,99.90
2023-04-18T03:05:26.937Z,99.90
2023-04-18T03:08:14.577Z,99.90
2023-04-18T03:11:02.133Z,99.90
2023-04-18T03:13:49.609Z,99.90
2023-04-18T03:16:37.540Z,99.90
2023-04-18T03:19:25.016Z,99.90
2023-04-18T03:22:14.277Z,99.90
2023-04-18T03:25:01.905Z,99.90
2023-04-18T03:27:49.313Z,99.90
2023-04-18T03:30:36.701Z,99.90
2023-04-18T03:33:24.474Z,99.90
2023-04-18T03:36:15.568Z,99.90
2023-04-18T03:39:03.013Z,99.90
2023-04-18T03:41:52.123Z,99.90
2023-04-18T03:44:39.603Z,99.90
2023-04-18T03:47:27.005Z,99.90
2023-04-18T03:50:14.418Z,99.90
2023-04-18T03:53:02.262Z,99.90
2023-04-18T03:55:50.406Z,99.90
2023-04-18T03:58:37.821Z,99.90
2023-04-18T04:01:25.480Z,99.90
2023-04-18T04:04:15.301Z,99.90
2023-04-18T04:07:03.532Z,99.90
2023-04-18T04:09:50.947Z,99.90
2023-04-18T04:12:38.348Z,99.90
2023-04-18T04:15:25.908Z,99.90
2023-04-18T04:18:13.372Z,99.90
2023-04-18T04:21:01.939Z,99.90
2023-04-18T04:23:49.478Z,99.90
2023-04-18T04:26:36.994Z,99.90
2023-04-18T04:29:24.491Z,99.90
2023-04-18T04:32:12.961Z,99.90
2023-04-18T04:35:00.596Z,99.90
2023-04-18T04:37:48.589Z,99.90
2023-04-18T04:40:35.991Z,99.90
2023-04-18T04:43:23.661Z,99.90
2023-04-18T04:46:13.582Z,99.90
2023-04-18T04:49:01.269Z,99.90
2023-04-18T04:51:48.994Z,99.90
2023-04-18T04:54:36.529Z,99.90
2023-04-18T04:57:23.983Z,99.90
2023-04-18T05:00:13.668Z,99.90
2023-04-18T05:03:02.205Z,99.90
2023-04-18T05:05:49.800Z,99.90
2023-04-18T05:08:37.371Z,99.90
2023-04-18T05:11:25.067Z,99.90
2023-04-18T05:14:13.283Z,99.90
2023-04-18T05:17:01.027Z,99.90
2023-04-18T05:19:48.664Z,99.90
2023-04-18T05:22:36.125Z,99.90
2023-04-18T05:25:23.620Z,99.90
2023-04-18T05:28:11.123Z,99.90
2023-04-18T05:31:01.638Z,99.90
2023-04-18T05:33:49.148Z,99.90
2023-04-18T05:36:37.069Z,99.90
2023-04-18T05:39:24.553Z,99.90
2023-04-18T05:42:12.027Z,99.90
2023-04-18T05:44:59.475Z,99.90
2023-04-18T05:47:47.031Z,99.90
2023-04-18T05:50:34.541Z,99.90
2023-04-18T05:53:22.086Z,99.90
2023-04-18T05:56:09.581Z,99.90
2023-04-18T05:58:57.077Z,99.90
2023-04-18T06:01:44.956Z,99.90
2023-04-18T06:04:32.695Z,99.90
2023-04-18T06:07:21.332Z,99.90
2023-04-18T06:10:13.252Z,99.90
2023-04-18T06:13:00.857Z,99.90
2023-04-18T06:15:48.340Z,99.90
2023-04-18T06:18:36.012Z,99.90
2023-04-18T06:21:23.444Z,99.90
2023-04-18T06:24:11.101Z,99.90
2023-04-18T06:26:58.633Z,99.90
2023-04-18T06:29:46.088Z,99.90
2023-04-18T06:32:33.890Z,99.90
2023-04-18T06:35:21.387Z,99.90
2023-04-18T06:38:11.219Z,99.90
2023-04-18T06:40:58.610Z,99.90
2023-04-18T06:43:59.723Z,99.90
2023-04-18T06:46:50.042Z,99.90
2023-04-18T06:49:37.553Z,99.90
2023-04-18T06:52:24.987Z,99.90
2023-04-18T06:55:13.801Z,99.90
2023-04-18T06:58:01.380Z,99.90
2023-04-18T07:00:51.846Z,99.90
2023-04-18T07:03:39.722Z,99.90
2023-04-18T07:06:27.383Z,99.90
2023-04-18T07:09:14.947Z,99.90
2023-04-18T07:12:02.485Z,99.90
2023-04-18T07:14:51.800Z,99.90
2023-04-18T07:17:39.307Z,99.90
2023-04-18T07:20:26.714Z,99.90
2023-04-18T07:23:14.226Z,99.90
2023-04-18T07:26:02.813Z,99.90
2023-04-18T07:28:50.471Z,99.90
2023-04-18T07:31:37.983Z,99.90
2023-04-18T07:34:29.801Z,99.90
2023-04-18T07:37:18.935Z,99.90
2023-04-18T07:40:07.003Z,99.90
2023-04-18T07:42:54.540Z,99.90
2023-04-18T07:45:43.328Z,99.90
2023-04-18T07:48:31.176Z,99.90
2023-04-18T07:51:18.737Z,99.90
2023-04-18T07:54:06.236Z,99.90
2023-04-18T07:56:53.688Z,99.90
2023-04-18T07:59:41.106Z,99.90
2023-04-18T08:02:28.788Z,99.90
2023-04-18T08:05:16.683Z,99.90
2023-04-18T08:08:07.438Z,99.90
2023-04-18T08:10:55.002Z,99.90
2023-04-18T08:13:42.529Z,99.90
2023-04-18T08:16:30.047Z,99.90
2023-04-18T08:19:17.749Z,99.90
2023-04-18T08:22:11.800Z,99.90
2023-04-18T08:25:05.147Z,99.90
2023-04-18T08:27:53.193Z,99.90
2023-04-18T08:30:40.863Z,99.90
2023-04-18T08:33:28.831Z,99.90
2023-04-18T08:36:16.414Z,99.90
2023-04-18T08:39:04.373Z,99.90
2023-04-18T08:41:58.929Z,99.90
2023-04-18T08:44:47.296Z,99.90
2023-04-18T08:47:35.610Z,99.90
2023-04-18T08:50:23.204Z,99.90
2023-04-18T08:53:11.378Z,99.90
2023-04-18T08:56:00.275Z,99.90
2023-04-18T08:58:48.056Z,99.90
2023-04-18T09:01:58.705Z,99.90
2023-04-18T09:04:49.069Z,99.90
2023-04-18T09:07:36.626Z,99.90
2023-04-18T09:10:31.010Z,99.90
2023-04-18T09:13:38.746Z,99.90
2023-04-18T09:16:27.656Z,99.30
2023-04-18T09:19:19.095Z,90.20
2023-04-18T09:22:08.198Z,81.30
2023-04-18T09:24:57.429Z,83.50
2023-04-18T09:27:45.419Z,91.50
2023-04-18T09:30:39.438Z,93.80
2023-04-18T09:33:34.662Z,96.50
2023-04-18T09:36:27.623Z,98.80
2023-04-18T09:39:27.462Z,99.90
2023-04-18T09:42:16.936Z,99.90
2023-04-18T09:45:06.631Z,99.90
2023-04-18T09:47:57.244Z,99.90
2023-04-18T09:50:46.263Z,99.90
2023-04-18T09:53:39.660Z,99.90
2023-04-18T09:56:29.678Z,99.90
2023-04-18T09:59:41.003Z,99.90
2023-04-18T10:02:35.475Z,99.90
2023-04-18T10:05:26.794Z,99.90
2023-04-18T10:08:14.687Z,99.90
2023-04-18T10:11:02.216Z,99.90
2023-04-18T10:13:53.497Z,99.90
2023-04-18T10:16:43.170Z,99.90
2023-04-18T10:19:30.898Z,99.90
2023-04-18T10:22:29.225Z,99.90
2023-04-18T10:25:35.213Z,99.90
2023-04-18T10:28:24.442Z,99.90
2023-04-18T10:31:11.971Z,99.10
2023-04-18T10:37:04.878Z,91.40
2023-04-18T10:40:06.586Z,93.60
2023-04-18T10:42:53.998Z,94.30
2023-04-18T10:45:41.470Z,97.70
2023-04-18T10:48:32.799Z,97.00
2023-04-18T10:51:23.197Z,96.80
2023-04-18T10:54:13.552Z,96.80
2023-04-18T10:57:03.623Z,96.80
2023-04-18T10:59:52.502Z,96.90
2023-04-18T11:02:41.146Z,97.50
2023-04-18T11:05:29.410Z,96.00
2023-04-18T11:08:24.097Z,96.50
2023-04-18T11:11:12.937Z,93.50
2023-04-18T11:14:00.523Z,90.90
2023-04-18T11:16:48.037Z,90.90
2023-04-18T11:19:35.553Z,88.40
2023-04-18T11:22:23.064Z,82.30
2023-04-18T11:25:11.156Z,77.40
2023-04-18T11:28:00.242Z,70.00
2023-04-18T11:30:48.328Z,64.90
2023-04-18T11:33:36.135Z,68.40
2023-04-18T11:36:23.665Z,72.10
2023-04-18T11:39:11.200Z,77.50
2023-04-18T11:41:59.717Z,77.40
2023-04-18T11:44:49.372Z,80.30
2023-04-18T11:47:36.967Z,83.70
2023-04-18T11:50:25.382Z,86.50
2023-04-18T11:53:12.892Z,87.20
2023-04-18T11:56:01.052Z,90.20
2023-04-18T11:58:48.599Z,92.20
2023-04-18T12:01:36.164Z,91.60
2023-04-18T12:04:23.804Z,92.50
2023-04-18T12:07:11.401Z,94.50
2023-04-18T12:09:59.060Z,94.20
2023-04-18T12:12:54.087Z,93.20
2023-04-18T12:15:44.612Z,92.90
2023-04-18T12:18:32.680Z,93.30
2023-04-18T12:21:21.310Z,93.90
2023-04-18T12:24:18.596Z,93.20
2023-04-18T12:27:06.238Z,93.20
2023-04-18T12:29:53.700Z,94.40
2023-04-18T12:32:45.646Z,93.10
2023-04-18T12:35:33.268Z,88.10
2023-04-18T12:38:24.663Z,90.50
2023-04-18T12:41:12.637Z,89.10
2023-04-18T12:44:18.247Z,90.90
2023-04-18T12:47:08.044Z,90.00
2023-04-18T12:49:57.615Z,91.00
2023-04-18T12:52:46.217Z,91.50
2023-04-18T12:55:36.243Z,88.30
2023-04-18T12:58:23.747Z,89.60
2023-04-18T13:01:14.228Z,89.80
2023-04-18T13:04:12.008Z,90.20
2023-04-18T13:07:00.661Z,92.80
2023-04-18T13:09:48.802Z,93.40
2023-04-18T13:12:40.767Z,94.00
2023-04-18T13:18:31.731Z,95.40
2023-04-18T13:21:19.294Z,95.80
2023-04-18T13:24:07.106Z,95.40
2023-04-18T13:26:55.162Z,95.60
2023-04-18T13:29:46.265Z,96.50
2023-04-18T13:32:35.590Z,94.90
2023-04-18T13:35:23.078Z,95.30
2023-04-18T13:38:13.672Z,96.10
2023-04-18T13:41:11.424Z,96.80
2023-04-18T13:44:00.752Z,96.00
2023-04-18T13:46:48.286Z,96.60
2023-04-18T13:49:36.555Z,96.30
2023-04-18T13:52:24.181Z,96.70
2023-04-18T13:55:12.424Z,98.10
2023-04-18T13:58:00.025Z,97.80
2023-04-18T14:00:47.469Z,99.00
2023-04-18T14:03:37.894Z,98.10
2023-04-18T14:06:30.277Z,98.10
2023-04-18T14:09:18.130Z,95.60
2023-04-18T14:12:06.009Z,93.10
2023-04-18T14:14:53.494Z,92.80
2023-04-18T14:17:42.764Z,87.10
2023-04-18T14:20:34.571Z,89.80
2023-04-18T14:23:22.718Z,90.70
2023-04-18T14:26:10.300Z,91.30
2023-04-18T14:28:57.822Z,91.30
2023-04-18T14:31:46.073Z,93.10
2023-04-18T14:34:34.439Z,92.50
2023-04-18T14:37:25.162Z,91.70
2023-04-18T14:40:12.612Z,92.10
2023-04-18T14:43:00.303Z,92.20
2023-04-18T14:45:47.793Z,92.60
2023-04-18T14:48:35.353Z,92.10
2023-04-18T14:51:23.762Z,88.20
2023-04-18T14:54:11.551Z,85.00
2023-04-18T14:56:59.071Z,89.40
2023-04-18T14:59:46.510Z,91.40
2023-04-18T15:02:34.232Z,92.00
2023-04-18T15:05:23.722Z,91.60
2023-04-18T15:08:11.475Z,92.80
2023-04-18T15:10:58.965Z,94.70
2023-04-18T15:13:50.486Z,94.80
2023-04-18T15:16:40.680Z,94.30
2023-04-18T15:19:30.333Z,95.00
2023-04-18T15:22:17.691Z,95.10
2023-04-18T15:25:05.675Z,94.00
2023-04-18T15:27:53.189Z,93.70
2023-04-18T15:30:40.731Z,93.70
2023-04-18T15:33:28.482Z,93.60
2023-04-18T15:36:15.963Z,93.90
2023-04-18T15:39:05.646Z,92.50
2023-04-18T15:41:54.546Z,91.60
2023-04-18T15:44:42.120Z,90.30
2023-04-18T15:47:30.079Z,91.00
2023-04-18T15:50:17.931Z,91.10
2023-04-18T15:53:05.367Z,90.10
2023-04-18T15:55:53.813Z,89.40
2023-04-18T15:58:41.251Z,89.20
2023-04-18T16:01:29.649Z,90.10
2023-04-18T16:04:17.409Z,90.90
2023-04-18T16:07:05.088Z,91.50
2023-04-18T16:09:52.622Z,93.30
2023-04-18T16:12:40.756Z,93.50
2023-04-18T16:15:34.857Z,93.20
2023-04-18T16:18:22.440Z,94.10
2023-04-18T16:21:16.210Z,95.60
2023-04-18T16:24:03.852Z,95.70
2023-04-18T16:26:53.118Z,95.80
2023-04-18T16:29:41.206Z,97.40
2023-04-18T16:32:28.697Z,96.90
2023-04-18T16:35:16.154Z,96.60
2023-04-18T16:38:03.889Z,96.90
2023-04-18T16:40:51.449Z,98.20
2023-04-18T16:43:38.985Z,98.40
2023-04-18T16:46:26.735Z,97.90
2023-04-18T16:49:14.395Z,98.40
2023-04-18T16:52:02.105Z,98.50
2023-04-18T16:54:51.968Z,99.00
2023-04-18T16:57:40.081Z,99.30
2023-04-18T17:00:27.569Z,99.50
2023-04-18T17:03:15.519Z,99.90
2023-04-18T17:06:03.142Z,99.90
2023-04-18T17:08:50.911Z,99.90
2023-04-18T17:11:39.742Z,99.90
2023-04-18T17:14:27.328Z,99.90
2023-04-18T17:17:14.846Z,99.90
2023-04-18T17:20:02.471Z,99.90
2023-04-18T17:22:49.994Z,99.90
2023-04-18T17:25:37.421Z,99.90
2023-04-18T17:28:25.097Z,99.90
2023-04-18T17:31:15.671Z,99.90
2023-04-18T17:34:06.276Z,99.90
2023-04-18T17:36:53.805Z,99.90
2023-04-18T17:39:41.538Z,99.90
2023-04-18T17:42:28.933Z,99.90
2023-04-18T17:45:18.194Z,99.90
2023-04-18T17:48:06.231Z,99.90
2023-04-18T17:50:53.768Z,99.90
2023-04-18T17:53:41.624Z,99.90
2023-04-18T17:56:30.461Z,99.90
2023-04-18T17:59:17.944Z,99.90
2023-04-18T18:02:05.902Z,99.90
2023-04-18T18:04:53.490Z,99.90
2023-04-18T18:07:43.161Z,99.90
2023-04-18T18:10:32.366Z,99.90
2023-04-18T18:13:19.751Z,99.90
2023-04-18T18:16:08.754Z,99.90
2023-04-18T18:18:56.177Z,99.90
2023-04-18T18:21:43.679Z,99.90
2023-04-18T18:24:31.277Z,99.90
2023-04-18T18:27:20.356Z,99.90
2023-04-18T18:30:11.137Z,99.90
2023-04-18T18:33:03.437Z,99.90
2023-04-18T18:35:51.503Z,99.90
2023-04-18T18:38:40.647Z,99.90
2023-04-18T18:41:28.814Z,99.90
2023-04-18T18:44:16.408Z,99.90
2023-04-18T18:47:03.793Z,99.90
2023-04-18T18:49:51.322Z,99.90
2023-04-18T18:52:40.739Z,99.90
2023-04-18T18:55:30.640Z,99.90
2023-04-18T18:58:18.218Z,99.90
2023-04-18T19:01:06.642Z,99.90
2023-04-18T19:03:54.275Z,99.90
2023-04-18T19:06:41.945Z,99.90
2023-04-18T19:09:29.383Z,99.90
2023-04-18T19:12:16.782Z,99.90
2023-04-18T19:15:05.079Z,99.90
2023-04-18T19:17:53.060Z,99.90
2023-04-18T19:20:41.707Z,99.90
2023-04-18T19:23:30.876Z,99.90
2023-04-18T19:26:18.538Z,99.90
2023-04-18T19:29:10.645Z,99.90
2023-04-18T19:31:58.128Z,99.90
2023-04-18T19:34:45.576Z,99.90
2023-04-18T19:37:32.978Z,99.90
2023-04-18T19:40:20.494Z,99.90
2023-04-18T19:43:08.001Z,99.90
2023-04-18T19:45:55.705Z,99.90
2023-04-18T19:48:43.319Z,99.90
2023-04-18T19:51:31.327Z,99.90
2023-04-18T19:54:21.876Z,99.90
2023-04-18T19:57:09.774Z,99.90
2023-04-18T19:59:57.223Z,99.90
2023-04-18T20:02:44.821Z,99.90
2023-04-18T20:05:32.480Z,99.90
2023-04-18T20:08:20.333Z,99.90
2023-04-18T20:11:09.590Z,99.90
2023-04-18T20:13:57.012Z,99.90
2023-04-18T20:16:45.884Z,99.90
2023-04-18T20:19:33.363Z,99.90
2023-04-18T20:22:20.902Z,99.90
2023-04-18T20:25:08.897Z,99.90
2023-04-18T20:27:56.345Z,99.90
2023-04-18T20:30:44.807Z,99.90
2023-04-18T20:33:32.854Z,99.90
2023-04-18T20:36:20.630Z,99.90
2023-04-18T20:39:09.103Z,99.90
2023-04-18T20:41:57.729Z,99.90
2023-04-18T20:44:46.696Z,99.90
2023-04-18T20:47:34.660Z,99.90
2023-04-18T20:50:22.069Z,99.90
2023-04-18T20:53:09.589Z,99.90
2023-04-18T20:55:57.066Z,99.90
2023-04-18T20:58:44.617Z,99.90
2023-04-18T21:01:32.256Z,99.90
2023-04-18T21:04:20.779Z,99.90
2023-04-18T21:07:08.314Z,99.90
2023-04-18T21:09:55.999Z,99.90
2023-04-18T21:12:43.555Z,99.90
2023-04-18T21:15:31.084Z,99.90
2023-04-18T21:18:19.116Z,99.90
2023-04-18T21:21:07.888Z,99.90
2023-04-18T21:23:55.438Z,99.90
2023-04-18T21:26:42.923Z,99.90
2023-04-18T21:29:30.342Z,99.90
2023-04-18T21:32:17.977Z,99.90
2023-04-18T21:35:05.820Z,99.90
2023-04-18T21:37:53.263Z,99.90
2023-04-18T21:40:40.736Z,99.90
2023-04-18T21:43:28.261Z,99.90
2023-04-18T21:46:16.636Z,99.90
2023-04-18T21:49:04.131Z,99.90
2023-04-18T21:51:51.608Z,99.90
2023-04-18T21:54:40.061Z,99.90
2023-04-18T21:57:27.677Z,99.90
2023-04-18T22:00:16.742Z,99.90
2023-04-18T22:03:04.293Z,99.90
2023-04-18T22:05:56.465Z,99.90
2023-04-18T22:08:43.919Z,99.90
2023-04-18T22:11:32.136Z,99.90
2023-04-18T22:14:19.981Z,99.90
2023-04-18T22:17:09.111Z,99.90
2023-04-18T22:19:57.698Z,99.90
2023-04-18T22:22:45.322Z,99.90
2023-04-18T22:25:33.040Z,99.90
2023-04-18T22:28:22.058Z,99.90
2023-04-18T22:31:09.558Z,99.90
2023-04-18T22:33:57.060Z,99.90
2023-04-18T22:36:45.556Z,99.90
2023-04-18T22:39:33.541Z,99.90
2023-04-18T22:42:21.011Z,99.90
2023-04-18T22:45:08.986Z,99.90
2023-04-18T22:47:56.573Z,99.90
2023-04-18T22:50:44.348Z,99.90
2023-04-18T22:53:31.885Z,99.90
2023-04-18T22:59:09.268Z,99.90
2023-04-18T23:01:57.409Z,99.90
2023-04-18T23:04:45.844Z,99.90
2023-04-18T23:07:33.435Z,99.90
2023-04-18T23:10:20.980Z,99.90
2023-04-18T23:13:08.397Z,99.90
2023-04-18T23:15:56.019Z,99.90
2023-04-18T23:18:43.555Z,99.90
2023-04-18T23:21:32.662Z,99.90
2023-04-18T23:24:20.074Z,99.90
2023-04-18T23:27:07.525Z,99.90
2023-04-18T23:29:55.371Z,99.90
2023-04-18T23:32:42.929Z,99.90
2023-04-18T23:35:30.486Z,99.90
2023-04-18T23:38:17.982Z,99.90
2023-04-18T23:41:05.725Z,99.90
2023-04-18T23:43:53.492Z,99.90
2023-04-18T23:46:40.916Z,99.90
2023-04-18T23:49:28.412Z,99.90
2023-04-18T23:52:15.867Z,99.90
2023-04-18T23:55:03.614Z,99.90
2023-04-18T23:57:51.041Z,99.90
